sensor_id;sensor_type;location;lat;lon;timestamp;temperature;humidity
52765;DHT22;38650;44.536;18.664;2023-04-06T00:01:52;4.70;99.90
52765;DHT22;38650;44.536;18.664;2023-04-06T00:04:17;4.70;99.90
52765;DHT22;38650;44.536;18.664;2023-04-06T00:06:43;4.70;99.90
52765;DHT22;38650;44.536;18.664;2023-04-06T00:09:08;4.50;99.90
52765;DHT22;38650;44.536;18.664;2023-04-06T00:11:34;4.40;99.90
52765;DHT22;38650;44.536;18.664;2023-04-06T00:13:59;4.40;99.90
52765;DHT22;38650;44.536;18.664;2023-04-06T00:16:25;4.30;99.90
52765;DHT22;38650;44.536;18.664;2023-04-06T00:18:51;4.30;99.90
52765;DHT22;38650;44.536;18.664;2023-04-06T00:21:17;4.30;99.90
52765;DHT22;38650;44.536;18.664;2023-04-06T00:23:42;4.30;99.90
52765;DHT22;38650;44.536;18.664;2023-04-06T00:26:08;4.20;99.90
52765;DHT22;38650;44.536;18.664;2023-04-06T00:28:36;4.20;99.90
52765;DHT22;38650;44.536;18.664;2023-04-06T00:31:02;4.20;99.90
52765;DHT22;38650;44.536;18.664;2023-04-06T00:33:27;4.20;99.90
52765;DHT22;38650;44.536;18.664;2023-04-06T00:35:53;4.30;99.90
52765;DHT22;38650;44.536;18.664;2023-04-06T00:38:18;4.40;99.90
52765;DHT22;38650;44.536;18.664;2023-04-06T00:40:44;4.40;99.90
52765;DHT22;38650;44.536;18.664;2023-04-06T00:43:11;4.30;99.90
52765;DHT22;38650;44.536;18.664;2023-04-06T00:45:39;4.30;99.90
52765;DHT22;38650;44.536;18.664;2023-04-06T00:48:06;4.40;99.90
52765;DHT22;38650;44.536;18.664;2023-04-06T00:50:32;4.50;99.90
52765;DHT22;38650;44.536;18.664;2023-04-06T00:53:01;4.40;99.90
52765;DHT22;38650;44.536;18.664;2023-04-06T00:55:27;4.50;99.90
52765;DHT22;38650;44.536;18.664;2023-04-06T00:57:53;4.50;99.90
52765;DHT22;38650;44.536;18.664;2023-04-06T01:00:18;4.50;99.90
52765;DHT22;38650;44.536;18.664;2023-04-06T01:02:44;4.60;99.90
52765;DHT22;38650;44.536;18.664;2023-04-06T01:05:11;4.60;99.90
52765;DHT22;38650;44.536;18.664;2023-04-06T01:07:37;4.60;99.90
52765;DHT22;38650;44.536;18.664;2023-04-06T01:10:02;4.60;99.90
52765;DHT22;38650;44.536;18.664;2023-04-06T01:12:28;4.60;99.90
52765;DHT22;38650;44.536;18.664;2023-04-06T01:14:54;4.60;99.90
52765;DHT22;38650;44.536;18.664;2023-04-06T01:17:20;4.70;99.90
52765;DHT22;38650;44.536;18.664;2023-04-06T01:19:45;4.70;99.90
52765;DHT22;38650;44.536;18.664;2023-04-06T01:22:17;4.70;99.90
52765;DHT22;38650;44.536;18.664;2023-04-06T01:24:43;4.60;99.90
52765;DHT22;38650;44.536;18.664;2023-04-06T01:27:08;4.60;99.90
52765;DHT22;38650;44.536;18.664;2023-04-06T01:29:34;4.50;99.90
52765;DHT22;38650;44.536;18.664;2023-04-06T01:32:00;4.40;99.90
52765;DHT22;38650;44.536;18.664;2023-04-06T01:34:26;4.50;99.90
52765;DHT22;38650;44.536;18.664;2023-04-06T01:36:51;4.40;99.90
52765;DHT22;38650;44.536;18.664;2023-04-06T01:39:17;4.50;99.90
52765;DHT22;38650;44.536;18.664;2023-04-06T01:41:43;4.50;99.90
52765;DHT22;38650;44.536;18.664;2023-04-06T01:44:08;4.60;99.90
52765;DHT22;38650;44.536;18.664;2023-04-06T01:46:34;4.50;99.90
52765;DHT22;38650;44.536;18.664;2023-04-06T01:49:00;4.50;99.90
52765;DHT22;38650;44.536;18.664;2023-04-06T01:51:25;4.40;99.90
52765;DHT22;38650;44.536;18.664;2023-04-06T01:53:51;4.50;99.90
52765;DHT22;38650;44.536;18.664;2023-04-06T01:56:17;4.50;99.90
52765;DHT22;38650;44.536;18.664;2023-04-06T01:58:43;4.50;99.90
52765;DHT22;38650;44.536;18.664;2023-04-06T02:01:08;4.50;99.90
52765;DHT22;38650;44.536;18.664;2023-04-06T02:03:34;4.50;99.90
52765;DHT22;38650;44.536;18.664;2023-04-06T02:06:00;4.40;99.90
52765;DHT22;38650;44.536;18.664;2023-04-06T02:08:25;4.40;99.90
52765;DHT22;38650;44.536;18.664;2023-04-06T02:10:51;4.30;99.90
52765;DHT22;38650;44.536;18.664;2023-04-06T02:13:17;4.30;99.90
52765;DHT22;38650;44.536;18.664;2023-04-06T02:15:43;4.30;99.90
52765;DHT22;38650;44.536;18.664;2023-04-06T02:18:08;4.30;99.90
52765;DHT22;38650;44.536;18.664;2023-04-06T02:20:35;4.30;99.90
52765;DHT22;38650;44.536;18.664;2023-04-06T02:23:00;4.30;99.90
52765;DHT22;38650;44.536;18.664;2023-04-06T02:25:26;4.30;99.90
52765;DHT22;38650;44.536;18.664;2023-04-06T02:27:51;4.30;99.90
52765;DHT22;38650;44.536;18.664;2023-04-06T02:30:17;4.20;99.90
52765;DHT22;38650;44.536;18.664;2023-04-06T02:32:43;4.20;99.90
52765;DHT22;38650;44.536;18.664;2023-04-06T02:35:08;4.10;99.90
52765;DHT22;38650;44.536;18.664;2023-04-06T02:37:34;4.10;99.90
52765;DHT22;38650;44.536;18.664;2023-04-06T02:39:59;4.10;99.90
52765;DHT22;38650;44.536;18.664;2023-04-06T02:42:25;4.20;99.90
52765;DHT22;38650;44.536;18.664;2023-04-06T02:44:50;4.30;99.90
52765;DHT22;38650;44.536;18.664;2023-04-06T02:47:16;4.30;99.90
52765;DHT22;38650;44.536;18.664;2023-04-06T02:49:41;4.40;99.90
52765;DHT22;38650;44.536;18.664;2023-04-06T02:52:07;4.40;99.90
52765;DHT22;38650;44.536;18.664;2023-04-06T02:54:32;4.30;99.90
52765;DHT22;38650;44.536;18.664;2023-04-06T02:56:58;4.20;99.90
52765;DHT22;38650;44.536;18.664;2023-04-06T02:59:24;4.20;99.90
52765;DHT22;38650;44.536;18.664;2023-04-06T03:01:49;4.10;99.90
52765;DHT22;38650;44.536;18.664;2023-04-06T03:04:15;4.20;99.90
52765;DHT22;38650;44.536;18.664;2023-04-06T03:06:40;4.20;99.90
52765;DHT22;38650;44.536;18.664;2023-04-06T03:09:06;4.20;99.90
52765;DHT22;38650;44.536;18.664;2023-04-06T03:11:32;4.20;99.90
52765;DHT22;38650;44.536;18.664;2023-04-06T03:13:57;4.30;99.90
52765;DHT22;38650;44.536;18.664;2023-04-06T03:16:24;4.30;99.90
52765;DHT22;38650;44.536;18.664;2023-04-06T03:18:50;4.30;99.90
52765;DHT22;38650;44.536;18.664;2023-04-06T03:21:15;4.30;99.90
52765;DHT22;38650;44.536;18.664;2023-04-06T03:23:41;4.30;99.90
52765;DHT22;38650;44.536;18.664;2023-04-06T03:26:07;4.30;99.90
52765;DHT22;38650;44.536;18.664;2023-04-06T03:28:32;4.20;99.90
52765;DHT22;38650;44.536;18.664;2023-04-06T03:30:58;4.10;99.90
52765;DHT22;38650;44.536;18.664;2023-04-06T03:33:24;4.00;99.90
52765;DHT22;38650;44.536;18.664;2023-04-06T03:35:52;3.90;99.90
52765;DHT22;38650;44.536;18.664;2023-04-06T03:38:18;3.80;99.90
52765;DHT22;38650;44.536;18.664;2023-04-06T03:40:43;3.80;99.90
52765;DHT22;38650;44.536;18.664;2023-04-06T03:43:09;3.90;99.90
52765;DHT22;38650;44.536;18.664;2023-04-06T03:45:34;3.90;99.90
52765;DHT22;38650;44.536;18.664;2023-04-06T03:48:00;4.00;99.90
52765;DHT22;38650;44.536;18.664;2023-04-06T03:50:25;4.10;99.90
52765;DHT22;38650;44.536;18.664;2023-04-06T03:52:51;4.10;99.90
52765;DHT22;38650;44.536;18.664;2023-04-06T03:55:16;4.00;99.90
52765;DHT22;38650;44.536;18.664;2023-04-06T03:57:42;4.00;99.90
52765;DHT22;38650;44.536;18.664;2023-04-06T04:00:08;4.10;99.90
52765;DHT22;38650;44.536;18.664;2023-04-06T04:02:34;4.10;99.90
52765;DHT22;38650;44.536;18.664;2023-04-06T04:04:59;4.10;99.90
52765;DHT22;38650;44.536;18.664;2023-04-06T04:07:25;4.00;99.90
52765;DHT22;38650;44.536;18.664;2023-04-06T04:09:51;4.00;99.90
52765;DHT22;38650;44.536;18.664;2023-04-06T04:12:16;4.00;99.90
52765;DHT22;38650;44.536;18.664;2023-04-06T04:14:42;3.90;99.90
52765;DHT22;38650;44.536;18.664;2023-04-06T04:17:08;3.90;99.90
52765;DHT22;38650;44.536;18.664;2023-04-06T04:19:33;4.00;99.90
52765;DHT22;38650;44.536;18.664;2023-04-06T04:21:59;3.90;99.90
52765;DHT22;38650;44.536;18.664;2023-04-06T04:24:24;3.90;99.90
52765;DHT22;38650;44.536;18.664;2023-04-06T04:26:50;4.00;99.90
52765;DHT22;38650;44.536;18.664;2023-04-06T04:29:16;4.00;99.90
52765;DHT22;38650;44.536;18.664;2023-04-06T04:31:41;4.00;99.90
52765;DHT22;38650;44.536;18.664;2023-04-06T04:34:07;4.00;99.90
52765;DHT22;38650;44.536;18.664;2023-04-06T04:36:33;4.00;99.90
52765;DHT22;38650;44.536;18.664;2023-04-06T04:38:58;4.10;99.90
52765;DHT22;38650;44.536;18.664;2023-04-06T04:41:26;4.10;99.90
52765;DHT22;38650;44.536;18.664;2023-04-06T04:43:51;4.10;99.90
52765;DHT22;38650;44.536;18.664;2023-04-06T04:46:17;4.10;99.90
52765;DHT22;38650;44.536;18.664;2023-04-06T04:48:43;4.00;99.90
52765;DHT22;38650;44.536;18.664;2023-04-06T04:51:08;4.00;99.90
52765;DHT22;38650;44.536;18.664;2023-04-06T04:53:34;4.00;99.90
52765;DHT22;38650;44.536;18.664;2023-04-06T04:55:59;4.00;99.90
52765;DHT22;38650;44.536;18.664;2023-04-06T04:58:25;3.90;99.90
52765;DHT22;38650;44.536;18.664;2023-04-06T05:00:50;3.80;99.90
52765;DHT22;38650;44.536;18.664;2023-04-06T05:03:25;3.80;99.90
52765;DHT22;38650;44.536;18.664;2023-04-06T05:05:51;3.90;99.90
52765;DHT22;38650;44.536;18.664;2023-04-06T05:08:17;3.90;99.90
52765;DHT22;38650;44.536;18.664;2023-04-06T05:10:43;3.90;99.90
52765;DHT22;38650;44.536;18.664;2023-04-06T05:13:09;3.90;99.90
52765;DHT22;38650;44.536;18.664;2023-04-06T05:15:35;3.90;99.90
52765;DHT22;38650;44.536;18.664;2023-04-06T05:18:06;3.90;99.90
52765;DHT22;38650;44.536;18.664;2023-04-06T05:20:32;3.90;99.90
52765;DHT22;38650;44.536;18.664;2023-04-06T05:22:58;3.90;99.90
52765;DHT22;38650;44.536;18.664;2023-04-06T05:25:23;3.90;99.90
52765;DHT22;38650;44.536;18.664;2023-04-06T05:27:49;3.90;99.90
52765;DHT22;38650;44.536;18.664;2023-04-06T05:30:14;4.00;99.90
52765;DHT22;38650;44.536;18.664;2023-04-06T05:32:40;4.10;99.90
52765;DHT22;38650;44.536;18.664;2023-04-06T05:35:07;4.20;99.90
52765;DHT22;38650;44.536;18.664;2023-04-06T05:37:33;4.40;99.90
52765;DHT22;38650;44.536;18.664;2023-04-06T05:39:59;4.50;99.90
52765;DHT22;38650;44.536;18.664;2023-04-06T05:42:24;4.60;99.90
52765;DHT22;38650;44.536;18.664;2023-04-06T05:44:50;4.70;99.90
52765;DHT22;38650;44.536;18.664;2023-04-06T05:47:16;4.90;99.90
52765;DHT22;38650;44.536;18.664;2023-04-06T05:49:42;5.00;99.90
52765;DHT22;38650;44.536;18.664;2023-04-06T05:52:08;5.20;99.90
52765;DHT22;38650;44.536;18.664;2023-04-06T05:54:34;5.30;99.90
52765;DHT22;38650;44.536;18.664;2023-04-06T05:57:01;5.40;99.90
52765;DHT22;38650;44.536;18.664;2023-04-06T05:59:27;5.50;99.90
52765;DHT22;38650;44.536;18.664;2023-04-06T06:01:52;5.70;99.90
52765;DHT22;38650;44.536;18.664;2023-04-06T06:04:18;6.10;99.90
52765;DHT22;38650;44.536;18.664;2023-04-06T06:06:43;6.60;99.90
52765;DHT22;38650;44.536;18.664;2023-04-06T06:09:09;6.90;99.90
52765;DHT22;38650;44.536;18.664;2023-04-06T06:11:35;7.30;99.90
52765;DHT22;38650;44.536;18.664;2023-04-06T06:14:00;8.00;99.90
52765;DHT22;38650;44.536;18.664;2023-04-06T06:16:26;8.40;98.50
52765;DHT22;38650;44.536;18.664;2023-04-06T06:18:52;8.20;97.00
52765;DHT22;38650;44.536;18.664;2023-04-06T06:21:18;8.20;95.40
52765;DHT22;38650;44.536;18.664;2023-04-06T06:23:43;8.50;95.60
52765;DHT22;38650;44.536;18.664;2023-04-06T06:26:09;9.60;86.70
52765;DHT22;38650;44.536;18.664;2023-04-06T06:28:34;9.50;76.90
52765;DHT22;38650;44.536;18.664;2023-04-06T06:31:00;10.30;69.90
52765;DHT22;38650;44.536;18.664;2023-04-06T06:33:26;10.70;70.70
52765;DHT22;38650;44.536;18.664;2023-04-06T06:35:52;12.10;66.50
52765;DHT22;38650;44.536;18.664;2023-04-06T06:38:17;13.00;56.20
52765;DHT22;38650;44.536;18.664;2023-04-06T06:40:43;14.20;53.30
52765;DHT22;38650;44.536;18.664;2023-04-06T06:43:08;14.90;51.20
52765;DHT22;38650;44.536;18.664;2023-04-06T06:45:34;15.10;47.40
52765;DHT22;38650;44.536;18.664;2023-04-06T06:48:00;16.10;44.50
52765;DHT22;38650;44.536;18.664;2023-04-06T06:50:29;15.30;44.00
52765;DHT22;38650;44.536;18.664;2023-04-06T06:52:58;16.20;43.80
52765;DHT22;38650;44.536;18.664;2023-04-06T06:55:27;16.00;41.40
52765;DHT22;38650;44.536;18.664;2023-04-06T06:57:58;14.90;42.50
52765;DHT22;38650;44.536;18.664;2023-04-06T07:00:27;14.70;44.00
52765;DHT22;38650;44.536;18.664;2023-04-06T07:02:57;14.80;42.30
52765;DHT22;38650;44.536;18.664;2023-04-06T07:05:23;14.60;43.40
52765;DHT22;38650;44.536;18.664;2023-04-06T07:07:48;15.10;42.20
52765;DHT22;38650;44.536;18.664;2023-04-06T07:10:14;15.00;41.50
52765;DHT22;38650;44.536;18.664;2023-04-06T07:12:40;14.80;43.00
52765;DHT22;38650;44.536;18.664;2023-04-06T07:15:05;14.30;42.90
52765;DHT22;38650;44.536;18.664;2023-04-06T07:17:31;14.00;42.30
52765;DHT22;38650;44.536;18.664;2023-04-06T07:19:58;13.50;44.30
52765;DHT22;38650;44.536;18.664;2023-04-06T07:22:23;12.90;44.30
52765;DHT22;38650;44.536;18.664;2023-04-06T07:24:49;13.20;42.70
52765;DHT22;38650;44.536;18.664;2023-04-06T07:27:16;12.80;42.70
52765;DHT22;38650;44.536;18.664;2023-04-06T07:29:42;12.40;44.70
52765;DHT22;38650;44.536;18.664;2023-04-06T07:32:08;12.10;44.90
52765;DHT22;38650;44.536;18.664;2023-04-06T07:34:33;12.30;44.70
52765;DHT22;38650;44.536;18.664;2023-04-06T07:36:59;12.30;44.50
52765;DHT22;38650;44.536;18.664;2023-04-06T07:39:26;12.00;44.80
52765;DHT22;38650;44.536;18.664;2023-04-06T07:41:52;11.80;46.20
52765;DHT22;38650;44.536;18.664;2023-04-06T07:44:18;11.60;46.50
52765;DHT22;38650;44.536;18.664;2023-04-06T07:46:43;11.70;45.80
52765;DHT22;38650;44.536;18.664;2023-04-06T07:49:09;11.80;45.50
52765;DHT22;38650;44.536;18.664;2023-04-06T07:51:38;11.90;45.30
52765;DHT22;38650;44.536;18.664;2023-04-06T07:54:03;12.70;44.40
52765;DHT22;38650;44.536;18.664;2023-04-06T07:56:29;13.50;43.20
52765;DHT22;38650;44.536;18.664;2023-04-06T07:58:55;15.10;40.60
52765;DHT22;38650;44.536;18.664;2023-04-06T08:01:24;16.40;40.60
52765;DHT22;38650;44.536;18.664;2023-04-06T08:03:49;18.20;37.90
52765;DHT22;38650;44.536;18.664;2023-04-06T08:06:15;18.60;35.60
52765;DHT22;38650;44.536;18.664;2023-04-06T08:08:41;19.30;34.70
52765;DHT22;38650;44.536;18.664;2023-04-06T08:11:07;19.90;33.10
52765;DHT22;38650;44.536;18.664;2023-04-06T08:13:33;20.80;31.90
52765;DHT22;38650;44.536;18.664;2023-04-06T08:15:59;21.10;30.60
52765;DHT22;38650;44.536;18.664;2023-04-06T08:18:25;20.40;30.30
52765;DHT22;38650;44.536;18.664;2023-04-06T08:20:50;19.70;31.80
52765;DHT22;38650;44.536;18.664;2023-04-06T08:23:16;19.30;32.20
52765;DHT22;38650;44.536;18.664;2023-04-06T08:25:43;19.30;31.50
52765;DHT22;38650;44.536;18.664;2023-04-06T08:28:08;19.10;31.80
52765;DHT22;38650;44.536;18.664;2023-04-06T08:30:35;19.30;32.70
52765;DHT22;38650;44.536;18.664;2023-04-06T08:33:00;18.70;30.20
52765;DHT22;38650;44.536;18.664;2023-04-06T08:35:26;17.60;31.00
52765;DHT22;38650;44.536;18.664;2023-04-06T08:37:52;18.10;30.20
52765;DHT22;38650;44.536;18.664;2023-04-06T08:40:17;18.00;28.60
52765;DHT22;38650;44.536;18.664;2023-04-06T08:42:50;18.10;29.70
52765;DHT22;38650;44.536;18.664;2023-04-06T08:45:16;17.00;29.30
52765;DHT22;38650;44.536;18.664;2023-04-06T08:47:41;16.20;29.00
52765;DHT22;38650;44.536;18.664;2023-04-06T08:50:08;14.70;29.70
52765;DHT22;38650;44.536;18.664;2023-04-06T08:52:33;14.80;32.10
52765;DHT22;38650;44.536;18.664;2023-04-06T08:54:59;14.50;34.10
52765;DHT22;38650;44.536;18.664;2023-04-06T08:57:25;14.70;34.10
52765;DHT22;38650;44.536;18.664;2023-04-06T08:59:51;14.90;34.00
52765;DHT22;38650;44.536;18.664;2023-04-06T09:02:18;14.60;32.70
52765;DHT22;38650;44.536;18.664;2023-04-06T09:04:45;15.00;35.10
52765;DHT22;38650;44.536;18.664;2023-04-06T09:07:12;15.60;32.80
52765;DHT22;38650;44.536;18.664;2023-04-06T09:09:37;15.90;33.80
52765;DHT22;38650;44.536;18.664;2023-04-06T09:12:08;16.00;32.50
52765;DHT22;38650;44.536;18.664;2023-04-06T09:14:38;16.20;33.90
52765;DHT22;38650;44.536;18.664;2023-04-06T09:17:04;16.30;30.90
52765;DHT22;38650;44.536;18.664;2023-04-06T09:19:30;15.80;33.80
52765;DHT22;38650;44.536;18.664;2023-04-06T09:22:04;16.10;30.70
52765;DHT22;38650;44.536;18.664;2023-04-06T09:24:42;16.20;30.60
52765;DHT22;38650;44.536;18.664;2023-04-06T09:27:08;16.10;31.70
52765;DHT22;38650;44.536;18.664;2023-04-06T09:29:34;15.90;31.20
52765;DHT22;38650;44.536;18.664;2023-04-06T09:32:05;15.60;31.50
52765;DHT22;38650;44.536;18.664;2023-04-06T09:34:31;15.90;32.60
52765;DHT22;38650;44.536;18.664;2023-04-06T09:36:57;15.70;31.00
52765;DHT22;38650;44.536;18.664;2023-04-06T09:39:23;15.10;30.80
52765;DHT22;38650;44.536;18.664;2023-04-06T09:41:50;14.80;33.00
52765;DHT22;38650;44.536;18.664;2023-04-06T09:44:16;14.80;34.40
52765;DHT22;38650;44.536;18.664;2023-04-06T09:46:42;14.90;35.00
52765;DHT22;38650;44.536;18.664;2023-04-06T09:49:08;15.20;33.00
52765;DHT22;38650;44.536;18.664;2023-04-06T09:51:38;15.80;35.30
52765;DHT22;38650;44.536;18.664;2023-04-06T09:54:04;15.90;32.90
52765;DHT22;38650;44.536;18.664;2023-04-06T09:56:32;15.80;31.70
52765;DHT22;38650;44.536;18.664;2023-04-06T09:59:01;15.60;33.40
52765;DHT22;38650;44.536;18.664;2023-04-06T10:01:28;15.70;30.90
52765;DHT22;38650;44.536;18.664;2023-04-06T10:06:30;15.90;31.00
52765;DHT22;38650;44.536;18.664;2023-04-06T10:08:58;16.00;30.70
52765;DHT22;38650;44.536;18.664;2023-04-06T10:11:24;15.20;31.50
52765;DHT22;38650;44.536;18.664;2023-04-06T10:13:49;15.20;31.00
52765;DHT22;38650;44.536;18.664;2023-04-06T10:16:15;14.80;30.90
52765;DHT22;38650;44.536;18.664;2023-04-06T10:18:42;14.20;31.50
52765;DHT22;38650;44.536;18.664;2023-04-06T10:21:14;14.50;32.20
52765;DHT22;38650;44.536;18.664;2023-04-06T10:23:45;14.80;31.00
52765;DHT22;38650;44.536;18.664;2023-04-06T10:26:13;14.80;32.50
52765;DHT22;38650;44.536;18.664;2023-04-06T10:28:40;15.20;30.70
52765;DHT22;38650;44.536;18.664;2023-04-06T10:31:06;15.10;31.70
52765;DHT22;38650;44.536;18.664;2023-04-06T10:33:34;14.60;33.70
52765;DHT22;38650;44.536;18.664;2023-04-06T10:36:13;14.20;33.60
52765;DHT22;38650;44.536;18.664;2023-04-06T10:38:39;14.30;34.20
52765;DHT22;38650;44.536;18.664;2023-04-06T10:41:09;14.30;33.10
52765;DHT22;38650;44.536;18.664;2023-04-06T10:43:36;14.80;33.50
52765;DHT22;38650;44.536;18.664;2023-04-06T10:46:02;15.30;33.70
52765;DHT22;38650;44.536;18.664;2023-04-06T10:48:41;15.60;31.80
52765;DHT22;38650;44.536;18.664;2023-04-06T10:51:13;15.30;33.20
52765;DHT22;38650;44.536;18.664;2023-04-06T10:53:41;14.70;34.60
52765;DHT22;38650;44.536;18.664;2023-04-06T10:56:09;14.80;33.00
52765;DHT22;38650;44.536;18.664;2023-04-06T10:58:36;15.60;34.40
52765;DHT22;38650;44.536;18.664;2023-04-06T11:01:01;15.80;33.10
52765;DHT22;38650;44.536;18.664;2023-04-06T11:03:27;16.20;33.30
52765;DHT22;38650;44.536;18.664;2023-04-06T11:05:53;16.70;30.40
52765;DHT22;38650;44.536;18.664;2023-04-06T11:08:25;16.50;31.60
52765;DHT22;38650;44.536;18.664;2023-04-06T11:10:50;16.70;35.30
52765;DHT22;38650;44.536;18.664;2023-04-06T11:13:16;16.60;33.10
52765;DHT22;38650;44.536;18.664;2023-04-06T11:15:42;16.70;34.10
52765;DHT22;38650;44.536;18.664;2023-04-06T11:18:20;16.50;31.40
52765;DHT22;38650;44.536;18.664;2023-04-06T11:20:49;16.10;31.50
52765;DHT22;38650;44.536;18.664;2023-04-06T11:23:21;15.50;32.20
52765;DHT22;38650;44.536;18.664;2023-04-06T11:25:53;15.70;33.60
52765;DHT22;38650;44.536;18.664;2023-04-06T11:28:19;16.50;32.10
52765;DHT22;38650;44.536;18.664;2023-04-06T11:30:45;16.70;30.80
52765;DHT22;38650;44.536;18.664;2023-04-06T11:33:10;16.30;31.50
52765;DHT22;38650;44.536;18.664;2023-04-06T11:35:36;16.10;30.60
52765;DHT22;38650;44.536;18.664;2023-04-06T11:38:03;16.10;33.00
52765;DHT22;38650;44.536;18.664;2023-04-06T11:40:28;15.80;32.40
52765;DHT22;38650;44.536;18.664;2023-04-06T11:42:55;15.60;32.40
52765;DHT22;38650;44.536;18.664;2023-04-06T11:45:21;15.20;32.40
52765;DHT22;38650;44.536;18.664;2023-04-06T11:47:55;14.80;32.50
52765;DHT22;38650;44.536;18.664;2023-04-06T11:50:20;14.90;34.30
52765;DHT22;38650;44.536;18.664;2023-04-06T11:52:46;15.50;36.90
52765;DHT22;38650;44.536;18.664;2023-04-06T11:55:22;15.50;33.70
52765;DHT22;38650;44.536;18.664;2023-04-06T11:57:48;15.30;34.30
52765;DHT22;38650;44.536;18.664;2023-04-06T12:00:18;15.20;35.20
52765;DHT22;38650;44.536;18.664;2023-04-06T12:02:47;15.70;35.50
52765;DHT22;38650;44.536;18.664;2023-04-06T12:05:12;16.40;34.70
52765;DHT22;38650;44.536;18.664;2023-04-06T12:07:38;16.50;33.80
52765;DHT22;38650;44.536;18.664;2023-04-06T12:10:04;16.70;31.30
52765;DHT22;38650;44.536;18.664;2023-04-06T12:12:30;16.90;30.80
52765;DHT22;38650;44.536;18.664;2023-04-06T12:14:56;17.20;33.80
52765;DHT22;38650;44.536;18.664;2023-04-06T12:17:22;17.50;30.20
52765;DHT22;38650;44.536;18.664;2023-04-06T12:19:48;17.30;29.60
52765;DHT22;38650;44.536;18.664;2023-04-06T12:22:14;17.40;32.40
52765;DHT22;38650;44.536;18.664;2023-04-06T12:24:40;17.80;32.90
52765;DHT22;38650;44.536;18.664;2023-04-06T12:27:06;18.10;30.40
52765;DHT22;38650;44.536;18.664;2023-04-06T12:29:31;18.40;30.10
52765;DHT22;38650;44.536;18.664;2023-04-06T12:31:57;18.20;31.50
52765;DHT22;38650;44.536;18.664;2023-04-06T12:34:22;17.10;29.00
52765;DHT22;38650;44.536;18.664;2023-04-06T12:36:48;17.30;33.00
52765;DHT22;38650;44.536;18.664;2023-04-06T12:39:13;17.60;30.90
52765;DHT22;38650;44.536;18.664;2023-04-06T12:41:39;17.50;29.40
52765;DHT22;38650;44.536;18.664;2023-04-06T12:44:08;17.50;29.60
52765;DHT22;38650;44.536;18.664;2023-04-06T12:46:33;17.20;30.00
52765;DHT22;38650;44.536;18.664;2023-04-06T12:48:59;16.90;28.90
52765;DHT22;38650;44.536;18.664;2023-04-06T12:51:27;16.80;29.80
52765;DHT22;38650;44.536;18.664;2023-04-06T12:53:52;17.10;29.70
52765;DHT22;38650;44.536;18.664;2023-04-06T12:56:18;17.70;29.30
52765;DHT22;38650;44.536;18.664;2023-04-06T12:58:44;17.60;29.80
52765;DHT22;38650;44.536;18.664;2023-04-06T13:01:10;17.70;29.90
52765;DHT22;38650;44.536;18.664;2023-04-06T13:03:38;17.80;30.00
52765;DHT22;38650;44.536;18.664;2023-04-06T13:06:04;17.80;30.20
52765;DHT22;38650;44.536;18.664;2023-04-06T13:08:30;17.60;31.20
52765;DHT22;38650;44.536;18.664;2023-04-06T13:10:55;18.00;33.40
52765;DHT22;38650;44.536;18.664;2023-04-06T13:13:24;18.10;30.80
52765;DHT22;38650;44.536;18.664;2023-04-06T13:15:50;18.10;33.40
52765;DHT22;38650;44.536;18.664;2023-04-06T13:18:16;18.30;32.40
52765;DHT22;38650;44.536;18.664;2023-04-06T13:20:41;18.30;31.50
52765;DHT22;38650;44.536;18.664;2023-04-06T13:23:07;18.30;30.10
52765;DHT22;38650;44.536;18.664;2023-04-06T13:25:33;18.30;30.30
52765;DHT22;38650;44.536;18.664;2023-04-06T13:27:59;18.00;29.10
52765;DHT22;38650;44.536;18.664;2023-04-06T13:30:25;17.50;31.00
52765;DHT22;38650;44.536;18.664;2023-04-06T13:32:50;17.60;31.50
52765;DHT22;38650;44.536;18.664;2023-04-06T13:35:16;17.60;30.40
52765;DHT22;38650;44.536;18.664;2023-04-06T13:37:43;18.00;31.30
52765;DHT22;38650;44.536;18.664;2023-04-06T13:40:08;18.40;32.70
52765;DHT22;38650;44.536;18.664;2023-04-06T13:42:34;18.80;30.50
52765;DHT22;38650;44.536;18.664;2023-04-06T13:45:07;18.80;32.20
52765;DHT22;38650;44.536;18.664;2023-04-06T13:47:32;18.60;30.00
52765;DHT22;38650;44.536;18.664;2023-04-06T13:49:58;18.50;31.60
52765;DHT22;38650;44.536;18.664;2023-04-06T13:52:24;18.70;32.80
52765;DHT22;38650;44.536;18.664;2023-04-06T13:54:49;18.80;30.80
52765;DHT22;38650;44.536;18.664;2023-04-06T13:57:15;19.10;30.10
52765;DHT22;38650;44.536;18.664;2023-04-06T13:59:41;19.40;31.50
52765;DHT22;38650;44.536;18.664;2023-04-06T14:02:08;19.70;30.00
52765;DHT22;38650;44.536;18.664;2023-04-06T14:04:34;19.40;29.00
52765;DHT22;38650;44.536;18.664;2023-04-06T14:07:00;18.70;30.00
52765;DHT22;38650;44.536;18.664;2023-04-06T14:09:26;18.40;29.70
52765;DHT22;38650;44.536;18.664;2023-04-06T14:11:51;18.30;29.60
52765;DHT22;38650;44.536;18.664;2023-04-06T14:14:17;18.00;29.00
52765;DHT22;38650;44.536;18.664;2023-04-06T14:16:43;18.40;30.50
52765;DHT22;38650;44.536;18.664;2023-04-06T14:19:15;18.60;30.90
52765;DHT22;38650;44.536;18.664;2023-04-06T14:21:43;18.70;30.10
52765;DHT22;38650;44.536;18.664;2023-04-06T14:24:09;18.60;29.80
52765;DHT22;38650;44.536;18.664;2023-04-06T14:26:34;18.20;30.30
52765;DHT22;38650;44.536;18.664;2023-04-06T14:29:01;18.00;29.20
52765;DHT22;38650;44.536;18.664;2023-04-06T14:31:26;18.00;30.00
52765;DHT22;38650;44.536;18.664;2023-04-06T14:33:52;17.80;30.20
52765;DHT22;38650;44.536;18.664;2023-04-06T14:36:18;18.00;30.70
52765;DHT22;38650;44.536;18.664;2023-04-06T14:38:43;17.60;30.60
52765;DHT22;38650;44.536;18.664;2023-04-06T14:41:15;17.50;30.00
52765;DHT22;38650;44.536;18.664;2023-04-06T14:43:41;17.50;30.50
52765;DHT22;38650;44.536;18.664;2023-04-06T14:46:06;17.40;29.40
52765;DHT22;38650;44.536;18.664;2023-04-06T14:48:34;17.20;30.10
52765;DHT22;38650;44.536;18.664;2023-04-06T14:51:00;17.50;31.10
52765;DHT22;38650;44.536;18.664;2023-04-06T14:53:26;17.50;30.40
52765;DHT22;38650;44.536;18.664;2023-04-06T14:55:52;17.70;33.30
52765;DHT22;38650;44.536;18.664;2023-04-06T14:58:18;17.70;30.90
52765;DHT22;38650;44.536;18.664;2023-04-06T15:00:43;17.40;29.70
52765;DHT22;38650;44.536;18.664;2023-04-06T15:03:09;17.40;29.30
52765;DHT22;38650;44.536;18.664;2023-04-06T15:05:35;17.70;29.40
52765;DHT22;38650;44.536;18.664;2023-04-06T15:08:01;18.00;29.60
52765;DHT22;38650;44.536;18.664;2023-04-06T15:10:26;17.90;30.20
52765;DHT22;38650;44.536;18.664;2023-04-06T15:12:52;17.40;29.70
52765;DHT22;38650;44.536;18.664;2023-04-06T15:15:17;17.40;30.10
52765;DHT22;38650;44.536;18.664;2023-04-06T15:17:43;17.20;29.70
52765;DHT22;38650;44.536;18.664;2023-04-06T15:20:08;17.40;31.10